Disclaimer   
PNR Super Search
 ♦ 
×
HashTag:
PNR Number:
Train Type:
Train:
From Station:
To Station:
Train Class:
2SSLCCEx3AFC2A1A3E
WL Quota:
DOJ From:
DOJ To:
Blogger:
Traveller:
Predictor:
Prediction:
WLRACConf
Stamper:
Final:
WLRACConfVoidQ-ConfUnStamped
Status:
Reaction:

Search
  Go  
 
Sat Jan 31, 2015 03:05:00 ISTHomeTrainsΣChainsAtlasPNRForumGalleryNewsFAQTripsMembersLoginFeedback
Sat Jan 31, 2015 03:05:00 IST
Post PNRPNR StatusModify Search

Ticket PNR Status Inquiry - PNR: 860-xxxxxxx (E-Ticket)

OLD STATUS

Status Last Updated on: Mar 05 2012 (8:23AM) IST

Date of Journey: Fri Mar 09, 2012   Class: AC 2-tier - 2A   (Total Seats available for this Class/Quota: Avbl >40)
Passenger 1: Can/Mod (Booking Status: W/L 16,GNWL)
Chart NOT Prepared

Ahmedabad- Howrah SF Express/12833

Travel Time: 33h 35m    55 halts    Distance: 1859 km    Avg Speed: 55 km/hr
Type: SuperFast
Zone: SER/South Eastern
Departs @ 03:55 (Avg 14m late)
Platform# 1
SMTWTFS
ST/Surat 
Arrives @ 13:30 +1 night (Avg 12m late)
Platform# 17
SMTWTFS
HWH/Kolkata Howrah Junction 

55 halts. 268 intermediate Stations between Surat and Kolkata Howrah Junction

Show ALL intermediate Stations  Show Old Time-Table

#TrkCodeStation NameX/OArrivesAvgDepartsAvgHaltPFDay#KmSpeedElevZoneAddress
1/==/ADIAhmedabad Junction  -23:55+171-229.62451mWRAhmedabad, Gujarat
2/==/MANManinagarX  00:03+000:05+02m12-226.46950mWRAhmadabad, Gujarat
3/==/NDNadiad JunctionX  00:42+900:44+92m12-184.06237mWRNadiad, Gujarat
4/==/ANNDAnand JunctionX  01:02+1101:04+152m12-165.64944mWRAnand, Gujarat
5/==/BRCVadodara Junction  01:48+1401:55+147m12-129.88836mWRVadodara 390005, Gujarat
6/==/BHBharuch Junction  02:43+1602:45+162m42-59.35919mWRBharuch, Gujarat
7/==/STSurat»X  03:45+1503:55+1410m120.03419mWRSurat 395001, Gujarat
8/==/UDNUdhna Junction  04:02+1904:04+222m324.06316mWRUdhna 394210, Gujarat
9%==%BIYBardoli  04:30+3204:32+312m1231.25935mWRNear Bardoli Sugar Factory Bardoli, Gujarat
10%==%MIDMadhiX  04:47+3604:49+362m1246.05345mWRMadhi, Gujarat
11%==/VYAVyaraX  05:06+3905:08+392m2261.05590mWRVyara, Gujarat
12/==/NWUNavapurX  05:54+3405:56+342m--2102.949124mWRNavapur, Gujarat
13/-=%NDBNandurbar  07:07+2407:15+248m22160.846203mWRNandurbar, Maharashtra
14/-=%DDEDondaicha  08:00+1608:02+172m12195.245163mWRDondaicha, Maharashtra
15%==%SNKSindkheda  08:28+1508:30+162m12214.653178mWRState Highway 11, Maharashtra
16/==%ANAmalner  09:17+909:20+93m12256.262188mWRAmalner, Maharashtra
17%==/DXGDharangaon  09:44+1109:46+122m12281.136217mWRDharangaon, Maharashtra
18%==%JLJalgaon JunctionX  10:35+1210:40+135m12310.872213mCRJalgaon 425001, Maharashtra
19/==/BSLBhusaval Junction  11:00+1811:10+2110m12334.970208mCRBhusaval 425201, Maharashtra
20/==/MKUMalkapurX  11:53+2411:55+242m22384.873252mCRMalkapur, Maharashtra
21/==/NNNandura  12:18+2412:20+242m22412.792267mCRNandura, Maharashtra
22/==/JMJalamb Junction  12:28+2612:30+262m12424.993259mCRJalamb, Maharashtra
23/==/SEGShegaonX  12:38+2912:40+292m22437.389281mCRShegaon 444203, Maharashtra
24/==/AKAkola Junction  13:05+3613:10+365m22474.580284mCRAkola-444001, Maharashtra
25/==/MZRMurtizapur  13:38+3913:40+392m12511.736303mCRMurtajapur, Maharashtra
26/==/BDBadnera Junction  14:50+1014:55+105m22553.569335mCRBadnera (Amravati) 444701, Maharashtra
27/==/CNDChandur  15:20+1415:22+142m12582.277331mCRAmravati Distt, Maharashtra
28/==/DMNDhamangaonX  15:35+1515:37+152m22598.980300mCRDhamangaon, Maharashtra
29/==/PLOPulgaon JunctionX  15:52+1715:54+172m12618.968273mCRPulgaon, Maharashtra
30/==/WRWardha Junction  16:20+1616:23+163m32648.475289mCRWardha 442001, Maharashtra
31/==/AJNIAjni  17:24+1117:26+112m12724.38310mCRNagpur 440003, Maharashtra
32/==/NGPNagpur JunctionX  17:50+318:00+410m12727.348314mCRNagpur 440001, Maharashtra
33/==/KPKampteeX  18:18+1618:20+162m12741.696290mSECRKamptee, Maharashtra
34/==/BRDBhandara RoadX  18:50+1918:52+192m12789.677266mSECRState Highway 252 Bhandara District, Maharashtra
35/==/TMRTumsar RoadX  19:06+2019:08+202m22807.581267mSECRDistt. Bhandara, Maharashtra
36/==/TROTirora  19:23+2119:25+212m12827.957282mSECRDist Gondia, Maharashtra
37/==/GGondia JunctionX  19:56+1619:58+172m22857.291316mSECRGondia 441601, Maharashtra
38/==/AGNAmgaonX  20:13+2120:15+212m12880.072317mSECRGondia, Maharashtra
39/==/DGGDongargarh  20:57+2320:59+292m12930.486353mSECRDongargarh, Chhattisgarh
40/==/RJNRaj NandgaonX  21:21+1921:23+192m12962.039313mSECRRajnandgaon, Chhattisgarh
41/==/DURGDurg Junction  22:10+922:15+105m32992.449299mSECRPh: 91-788-2322059, Chhattisgarh
42/==/BPHBBhilai Power HouseX  22:26+022:28+02m121001.462312mSECRBhilai, Chhattisgarh
43/==/RRaipur JunctionX  22:55+1323:05+1110m621029.474297mSECRRaipur, Chhattisgarh
44/==/TLDTilda  23:36+1623:38+162m--21067.687293mSECRBanjari Rd, Chhattisgarh
45/==/BYTBhatapara  23:56+1723:58+172m--21093.649270mSECRBanjari Road, Chhattisgarh
46/==/BSPBilaspur JunctionX  00:55+601:10+1615m231139.878271mSECRBilaspur, Chhattisgarh
47/==/AKTAkaltara  01:31+1701:33+182m331167.069284mSECRDist. Janjgir Champa, Chhattisgarh
48/==/NIANailaX  01:46+1701:48+172m231182.054273mSECRJanjgir, Chhattisgarh
49/==/CPHChampa JunctionX  02:00+1802:03+233m131192.885264mSECRNational Highway 200 (07819-245767), Chhattisgarh
50/==/BUABaradwar  02:14+2402:16+252m131208.391260mSECRJanjgir-Champa, Chhattisgarh
51/==/KHSKharsia  02:36+2902:38+302m131238.685259mSECRNational Highway 200, Chhattisgarh
52/==/RIGRaigarhXO  03:02+3403:07+345m131272.690220mSECRRaigarh, Chhattisgarh
53/==/BPHBelpahar  03:41+4103:43+412m--31323.653235mSECRBelpahar, Odisha
54/==/BRJNBrajrajnagarX  03:53+4203:55+422m--31332.611212mSECRBrajrajnagar, Odisha
55/==/JSGJharsuguda JunctionX  05:00+205:02+112m231344.281236mSERJharsuguda, Odisha
56/==/BMBBamra  05:29+905:31+112m--31380.780259mSERBamra PH : 06642-229268, Odisha
57/==/GPRaj GangpurX  05:57+1405:59+142m231415.454237mSERRaj Ganpur, Odisha
58/==/ROURourkela Junction  06:32+1406:47+1515m531445.275198mSERRourkela, Odisha
59/==/CKPChakradharpurX  08:08+1508:15+167m231546.253235mSERChakradharpur (West Singhbhum), Jharkhand
60/==/TATATatanagar Junction  09:25+309:35+610m531608.579164mSER91-657-2423026, Jharkhand
61/==/KGPKharagpur Junction  11:17+1811:22+195m631743.67342mSERDist: West Medinipur, West Bengal
62/==/SRCKolkata Santragachi Junction  12:51+912:53+92m631851.2127mSERDist: Howrah - 711104, West Bengal
63/==/HWHKolkata Howrah Junction•  13:30+12-1731858.6-10mERHowrah 711101, West Bengal
Scroll to Top
Scroll to Bottom


Go to Mobile site